^^
Grace C. Lehan Memorial Weather Station Historical Data
Daily Summary for January 8, 2021 Units:  English    Metric   Both
Daily Weekly Monthly Yearly
  High: Low: Average:
Temperature: 64.1 °F 35.2 °F 48.6 °F
Dew Point: 45.5 °F 31.7 °F 39 °F
Humidity: 89.4% 43% 72%
Wind Speed: 2.6mph 0mph 0.3mph
Wind Gust: 11mph - -
Wind- - East
Pressure: 30.14 in 30.04 in -
Precipitation: 0.00 in    
 
 
Tabular Data for January 8, 2021
Time Temperature Dew Point Pressure Wind Wind Speed Wind Gust Humidity Rainfall Rate (Hourly) solar
00:04 39.1 °F 34.3 °F 30.08 in Calm     82.9% 0.00 in 0 W/m2
00:09 38.9 °F 34.2 °F 30.08 in Calm     83% 0.00 in 0 W/m2
00:14 38.7 °F 34.2 °F 30.08 in Calm     83.7% 0.00 in 0 W/m2
00:19 38.6 °F 34.2 °F 30.07 in Calm     84% 0.00 in 0 W/m2
00:24 38.4 °F 34.3 °F 30.07 in Calm     84.8% 0.00 in 0 W/m2
00:29 38.4 °F 34.3 °F 30.07 in Calm     85% 0.00 in 0 W/m2
00:34 38.4 °F 34.3 °F 30.07 in Calm     85% 0.00 in 0 W/m2
00:39 38.3 °F 34.2 °F 30.06 in Calm     85% 0.00 in 0 W/m2
00:44 38.2 °F 34.1 °F 30.06 in Calm     85% 0.00 in 0 W/m2
00:49 38.2 °F 34.1 °F 30.07 in Calm     85% 0.00 in 0 W/m2
00:54 38.2 °F 34.3 °F 30.07 in Calm     85.8% 0.00 in 0 W/m2
00:59 38.1 °F 34.3 °F 30.07 in Calm     86% 0.00 in 0 W/m2
01:04 38 °F 33.9 °F 30.07 in Calm     85% 0.00 in 0 W/m2
01:09 38 °F 33.9 °F 30.07 in Calm     85% 0.00 in 0 W/m2
01:14 38 °F 33.9 °F 30.07 in Calm     85% 0.00 in 0 W/m2
01:19 38 °F 33.9 °F 30.07 in Calm     85% 0.00 in 0 W/m2
01:24 38 °F 33.9 °F 30.07 in Calm     85% 0.00 in 0 W/m2
01:29 38 °F 33.9 °F 30.07 in ENE 0.1 mph 1 mph 85% 0.00 in 0 W/m2
01:34 37.9 °F 33.8 °F 30.07 in ENE 0.3 mph 3 mph 85% 0.00 in 0 W/m2
01:39 37.8 °F 33.7 °F 30.06 in ENE 0.5 mph 3 mph 85% 0.00 in 0 W/m2
01:44 37.8 °F 33.7 °F 30.07 in Calm   3 mph 85% 0.00 in 0 W/m2
01:49 37.8 °F 33.7 °F 30.06 in ENE 0.5 mph 3 mph 85% 0.00 in 0 W/m2
01:54 37.9 °F 33.8 °F 30.05 in ENE 0.2 mph 3 mph 85% 0.00 in 0 W/m2
01:59 38 °F 33.9 °F 30.05 in ENE 0.2 mph 3 mph 85% 0.00 in 0 W/m2
02:04 38.1 °F 33.7 °F 30.05 in NE 0.1 mph 3 mph 84.2% 0.00 in 0 W/m2
02:09 38.2 °F 33.8 °F 30.05 in Calm   2 mph 84% 0.00 in 0 W/m2
02:14 38.2 °F 33.7 °F 30.05 in Calm   2 mph 83.6% 0.00 in 0 W/m2
02:19 38.3 °F 33.6 °F 30.05 in Calm   2 mph 83% 0.00 in 0 W/m2
02:24 38.4 °F 33.7 °F 30.05 in Calm   2 mph 83% 0.00 in 0 W/m2
02:29 38.4 °F 33.7 °F 30.05 in Calm   2 mph 83% 0.00 in 0 W/m2
02:34 38.3 °F 33.6 °F 30.04 in Calm   2 mph 83% 0.00 in 0 W/m2
02:39 38.3 °F 33.6 °F 30.04 in Calm     83% 0.00 in 0 W/m2
02:44 38.3 °F 33.6 °F 30.05 in Calm     82.7% 0.00 in 0 W/m2
02:49 38.4 °F 33.4 °F 30.05 in Calm     82% 0.00 in 0 W/m2
02:53 38.4 °F 33.4 °F 30.05 in Calm     82% 0.00 in 0 W/m2
02:59 38.3 °F 33.3 °F 30.05 in Calm     82% 0.00 in 0 W/m2
03:04 38.3 °F 33.5 °F 30.05 in Calm     82.5% 0.00 in 0 W/m2
03:09 38.3 °F 33.3 °F 30.05 in Calm     82.2% 0.00 in 0 W/m2
03:14 38.3 °F 33.6 °F 30.05 in Calm     83% 0.00 in 0 W/m2
03:19 38.3 °F 33.6 °F 30.05 in NE 0.1 mph 1 mph 83% 0.00 in 0 W/m2
03:24 38.3 °F 33.5 °F 30.05 in Calm   1 mph 82.6% 0.00 in 0 W/m2
03:29 38.3 °F 33.3 °F 30.05 in Calm   1 mph 82% 0.00 in 0 W/m2
03:34 38.3 °F 33.3 °F 30.05 in Calm   1 mph 82% 0.00 in 0 W/m2
03:39 38.3 °F 33.3 °F 30.05 in Calm     82% 0.00 in 0 W/m2
03:44 38.3 °F 33.3 °F 30.05 in Calm     82% 0.00 in 0 W/m2
03:49 38.2 °F 33.2 °F 30.06 in Calm     82% 0.00 in 0 W/m2
03:54 38.1 °F 33.1 °F 30.06 in NE 0.1 mph 2 mph 82% 0.00 in 0 W/m2
03:59 38.1 °F 33.1 °F 30.06 in NE 0.1 mph 2 mph 82% 0.00 in 0 W/m2
04:09 38.1 °F 33.1 °F 30.06 in Calm     82% 0.00 in 0 W/m2
04:14 38 °F 33 °F 30.07 in Calm     81.9% 0.00 in 0 W/m2
04:19 37.9 °F 32.9 °F 30.07 in Calm     82% 0.00 in 0 W/m2
04:24 37.8 °F 32.8 °F 30.07 in Calm   1 mph 82% 0.00 in 0 W/m2
04:29 37.7 °F 32.7 °F 30.07 in Calm   1 mph 82% 0.00 in 0 W/m2
04:34 37.5 °F 32.6 °F 30.07 in Calm   1 mph 82% 0.00 in 0 W/m2
04:39 37.5 °F 32.7 °F 30.07 in Calm     82.9% 0.00 in 0 W/m2
04:44 37.3 °F 32.6 °F 30.08 in Calm     83% 0.00 in 0 W/m2
04:49 37.2 °F 32.5 °F 30.08 in Calm     83% 0.00 in 0 W/m2
04:54 37.1 °F 32.4 °F 30.08 in Calm   1 mph 83% 0.00 in 0 W/m2
04:59 37 °F 32.5 °F 30.08 in NE 0.1 mph 2 mph 83.6% 0.00 in 0 W/m2
05:04 36.8 °F 32.4 °F 30.08 in Calm   2 mph 84% 0.00 in 0 W/m2
05:09 36.5 °F 32.2 °F 30.08 in Calm   1 mph 84.1% 0.00 in 0 W/m2
05:14 36.4 °F 32.3 °F 30.08 in Calm   1 mph 85% 0.00 in 0 W/m2
05:19 36.2 °F 32.1 °F 30.08 in NE 0.1 mph 2 mph 85% 0.00 in 0 W/m2
05:24 36.1 °F 32 °F 30.08 in Calm   2 mph 85% 0.00 in 0 W/m2
05:29 36 °F 32.1 °F 30.08 in NE 0.1 mph 2 mph 85.7% 0.00 in 0 W/m2
05:34 35.9 °F 32.1 °F 30.09 in Calm   2 mph 86% 0.00 in 0 W/m2
05:39 35.8 °F 32 °F 30.09 in Calm   2 mph 86% 0.00 in 0 W/m2
05:44 35.7 °F 31.9 °F 30.09 in Calm   2 mph 86% 0.00 in 0 W/m2
05:49 35.7 °F 31.9 °F 30.09 in Calm   2 mph 86% 0.00 in 0 W/m2
05:54 35.7 °F 31.9 °F 30.09 in Calm   2 mph 86% 0.00 in 0 W/m2
05:59 35.7 °F 31.9 °F 30.09 in Calm   2 mph 86% 0.00 in 0 W/m2
06:04 35.7 °F 32 °F 30.09 in Calm   2 mph 86% 0.00 in 0 W/m2
06:09 35.7 °F 31.9 °F 30.09 in Calm     86% 0.00 in 0 W/m2
06:14 35.7 °F 31.9 °F 30.09 in Calm     86% 0.00 in 0 W/m2
06:19 35.7 °F 31.9 °F 30.10 in Calm     86% 0.00 in 0 W/m2
06:24 35.6 °F 31.9 °F 30.10 in Calm     86% 0.00 in 0 W/m2
06:29 35.6 °F 31.8 °F 30.11 in Calm     86% 0.00 in 0 W/m2
06:34 35.5 °F 31.7 °F 30.11 in Calm     86% 0.00 in 0 W/m2
06:39 35.5 °F 31.7 °F 30.11 in Calm     86% 0.00 in 0 W/m2
06:44 35.4 °F 31.7 °F 30.11 in Calm     86.3% 0.00 in 5 W/m2
06:49 35.3 °F 31.8 °F 30.11 in Calm     87% 0.00 in 9 W/m2
06:54 35.2 °F 32.4 °F 30.11 in Calm     89.4% 0.00 in 21 W/m2
06:59 35.2 °F 31.7 °F 30.11 in Calm     87% 0.00 in 32 W/m2
07:04 35.3 °F 31.9 °F 30.11 in Calm     87.2% 0.00 in 33 W/m2
07:09 35.6 °F 32.4 °F 30.12 in Calm     88% 0.00 in 30 W/m2
07:14 35.9 °F 32.7 °F 30.12 in Calm     88% 0.00 in 33 W/m2
07:19 36.1 °F 32.9 °F 30.13 in Calm     88% 0.00 in 26 W/m2
07:24 36.3 °F 32.9 °F 30.13 in Calm     87.4% 0.00 in 32 W/m2
07:29 36.4 °F 33 °F 30.13 in Calm     87% 0.00 in 35 W/m2
07:34 36.6 °F 33.1 °F 30.13 in Calm     87% 0.00 in 53 W/m2
07:39 36.9 °F 33.3 °F 30.13 in Calm     86.8% 0.00 in 56 W/m2
07:44 37.1 °F 33.3 °F 30.13 in Calm     86% 0.00 in 51 W/m2
07:49 37.5 °F 33.7 °F 30.13 in Calm   1 mph 86% 0.00 in 60 W/m2
07:54 38 °F 33.8 °F 30.13 in NE 0.1 mph 2 mph 84.6% 0.00 in 76 W/m2
07:59 38.7 °F 34.1 °F 30.13 in Calm   2 mph 83.4% 0.00 in 193 W/m2
08:09 40.6 °F 34.9 °F 30.13 in NE 0.5 mph 4 mph 80.2% 0.00 in 236 W/m2
08:14 41.5 °F 35.4 °F 30.13 in NE 0.4 mph 4 mph 78.6% 0.00 in 274 W/m2
08:19 42.8 °F 35.8 °F 30.14 in NE 0.4 mph 4 mph 76.1% 0.00 in 290 W/m2
08:24 44.1 °F 35.9 °F 30.13 in NE 0.2 mph 4 mph 72.7% 0.00 in 304 W/m2
08:29 45.2 °F 36.2 °F 30.13 in Calm   4 mph 70.4% 0.00 in 318 W/m2
08:34 46.3 °F 36.6 °F 30.13 in NE 0.2 mph 4 mph 68.7% 0.00 in 330 W/m2
08:39 47.3 °F 36.8 °F 30.13 in NE 0.3 mph 3 mph 66.8% 0.00 in 339 W/m2
08:44 48.1 °F 37 °F 30.13 in NNE 0.4 mph 4 mph 65.3% 0.00 in 352 W/m2
08:49 48.8 °F 37 °F 30.13 in NNE 0.2 mph 4 mph 63.6% 0.00 in 360 W/m2
08:54 49.3 °F 37.1 °F 30.13 in NNE 0.5 mph 4 mph 62.5% 0.00 in 371 W/m2
08:59 49.8 °F 37.1 °F 30.12 in Calm   4 mph 61.4% 0.00 in 380 W/m2
09:04 50.3 °F 36.9 °F 30.13 in NNE 0.4 mph 4 mph 59.9% 0.00 in 394 W/m2
09:09 50.7 °F 37 °F 30.13 in NNE 0.9 mph 3 mph 59.4% 0.00 in 399 W/m2
09:14 51.1 °F 37.3 °F 30.13 in NNE 1 mph 5 mph 59% 0.00 in 374 W/m2
09:19 51.4 °F 37.3 °F 30.13 in NNE 1.2 mph 5 mph 58.5% 0.00 in 396 W/m2
09:24 51.3 °F 37.3 °F 30.13 in NE 0.9 mph 5 mph 58.5% 0.00 in 371 W/m2
09:29 51.3 °F 37 °F 30.13 in NE 1.8 mph 6 mph 58% 0.00 in 396 W/m2
09:34 51.2 °F 37.3 °F 30.13 in NE 0.6 mph 6 mph 58.8% 0.00 in 292 W/m2
09:39 51.2 °F 37.4 °F 30.13 in NE 0.5 mph 4 mph 59% 0.00 in 283 W/m2
09:44 51.2 °F 37.3 °F 30.13 in NNE 0.4 mph 4 mph 58.7% 0.00 in 220 W/m2
09:49 51.3 °F 37.5 °F 30.14 in NNE 0.3 mph 4 mph 59% 0.00 in 214 W/m2
09:54 51.5 °F 38 °F 30.14 in NNW 1 mph 7 mph 59.6% 0.00 in 341 W/m2
09:59 52 °F 38.2 °F 30.13 in NNW 1.5 mph 7 mph 59.2% 0.00 in 341 W/m2
10:04 52.4 °F 38.2 °F 30.13 in North 0.6 mph 7 mph 58.2% 0.00 in 211 W/m2
10:09 53 °F 38.7 °F 30.13 in ENE 1.4 mph 7 mph 58.2% 0.00 in 406 W/m2
10:14 53.7 °F 38.8 °F 30.14 in NNE 1.1 mph 10 mph 56.8% 0.00 in 517 W/m2
10:19 54.7 °F 39 °F 30.14 in North 1.7 mph 10 mph 55.3% 0.00 in 524 W/m2
10:24 55.7 °F 39.6 °F 30.14 in NNE 0.7 mph 10 mph 54.6% 0.00 in 531 W/m2
10:29 56.6 °F 38.9 °F 30.14 in NE 1.4 mph 10 mph 51.4% 0.00 in 536 W/m2
10:33 57.1 °F 38.6 °F 30.14 in ENE 2.3 mph 10 mph 50% 0.00 in 536 W/m2
10:39 57.8 °F 39.2 °F 30.13 in NE 0.2 mph 5 mph 49.7% 0.00 in 515 W/m2
10:44 58.4 °F 38.9 °F 30.14 in NNE 1.5 mph 8 mph 48.2% 0.00 in 550 W/m2
10:49 58.4 °F 37.7 °F 30.14 in NE 1.4 mph 8 mph 45.9% 0.00 in 434 W/m2
10:54 58.1 °F 37.4 °F 30.13 in NE 1.6 mph 8 mph 46% 0.00 in 380 W/m2
10:59 58 °F 37.9 °F 30.13 in ENE 1.1 mph 8 mph 47.1% 0.00 in 246 W/m2
11:04 58.1 °F 37.7 °F 30.12 in NE 1.5 mph 8 mph 46.5% 0.00 in 547 W/m2
11:09 58.3 °F 37.9 °F 30.12 in North 0.6 mph 6 mph 46.4% 0.00 in 570 W/m2
11:14 58.8 °F 38.8 °F 30.12 in North 1 mph 6 mph 47.4% 0.00 in 570 W/m2
11:19 58.9 °F 38.2 °F 30.11 in NNW 0.5 mph 6 mph 46% 0.00 in 262 W/m2
11:24 59 °F 37.5 °F 30.11 in NNW 1.2 mph 6 mph 44.6% 0.00 in 294 W/m2
11:29 59.2 °F 37.8 °F 30.11 in North 0.8 mph 6 mph 44.9% 0.00 in 287 W/m2
11:34 59.4 °F 37.7 °F 30.11 in NE 0.7 mph 6 mph 44.3% 0.00 in 571 W/m2
11:39 59.7 °F 37.8 °F 30.10 in NNW 1.5 mph 6 mph 44% 0.00 in 559 W/m2
11:44 60 °F 37.8 °F 30.10 in NW 0.4 mph 6 mph 43.5% 0.00 in 503 W/m2
11:49 60.3 °F 38.3 °F 30.10 in NNW 0.4 mph 6 mph 43.8% 0.00 in 499 W/m2
11:54 60.6 °F 38.8 °F 30.10 in NW 1.2 mph 6 mph 44.3% 0.00 in 350 W/m2
11:59 61 °F 38.7 °F 30.10 in North 0.9 mph 6 mph 43.6% 0.00 in 267 W/m2
12:00 61.1 °F 38.5 °F 30.10 in NNW 0.7 mph 6 mph 43% 0.00 in 158 W/m2
12:09 61.3 °F 39.7 °F 30.10 in NNW 1.1 mph 5 mph 44.9% 0.00 in 130 W/m2
12:14 61.5 °F 40.1 °F 30.10 in North 1.2 mph 7 mph 45.3% 0.00 in 459 W/m2
12:19 61.6 °F 39.8 °F 30.10 in ENE 1.5 mph 9 mph 44.6% 0.00 in 550 W/m2
12:24 61.7 °F 40.6 °F 30.10 in NNE 2.2 mph 10 mph 45.8% 0.00 in 322 W/m2
12:29 61.9 °F 41.2 °F 30.09 in NE 1.7 mph 10 mph 46.4% 0.00 in 378 W/m2
12:34 62.1 °F 41.6 °F 30.09 in NNE 1.8 mph 10 mph 47.1% 0.00 in 501 W/m2
12:39 62.2 °F 41.6 °F 30.09 in NE 2.6 mph 11 mph 46.7% 0.00 in 374 W/m2
12:44 62.2 °F 41.8 °F 30.08 in East 0.3 mph 11 mph 47.1% 0.00 in 496 W/m2
12:49 62.4 °F 42.6 °F 30.09 in NNW 2.2 mph 11 mph 48.3% 0.00 in 441 W/m2
12:54 62.6 °F 42.8 °F 30.08 in North 0.9 mph 11 mph 48.2% 0.00 in 156 W/m2
12:59 62.8 °F 43.1 °F 30.08 in NE 2.1 mph 11 mph 48.5% 0.00 in 290 W/m2
13:04 62.9 °F 43.1 °F 30.08 in NE 2.2 mph 11 mph 48.3% 0.00 in 306 W/m2
13:09 62.9 °F 43.6 °F 30.08 in NNE 0.6 mph 7 mph 49.2% 0.00 in 332 W/m2
13:14 63.1 °F 43.7 °F 30.08 in NNE 1.7 mph 7 mph 49.1% 0.00 in 246 W/m2
13:19 63.3 °F 43.9 °F 30.08 in ENE 0.8 mph 7 mph 49% 0.00 in 172 W/m2
13:24 63.5 °F 44.2 °F 30.08 in NE 0.6 mph 7 mph 49.2% 0.00 in 352 W/m2
13:29 63.8 °F 44.3 °F 30.08 in ENE 1.4 mph 7 mph 49% 0.00 in 352 W/m2
13:34 63.7 °F 43.9 °F 30.08 in ENE 1.7 mph 7 mph 48.3% 0.00 in 462 W/m2
13:39 63.6 °F 44.4 °F 30.07 in NW 1.4 mph 6 mph 49.6% 0.00 in 462 W/m2
13:44 63.6 °F 44.6 °F 30.07 in NW 0.9 mph 7 mph 50% 0.00 in 156 W/m2
13:49 63.8 °F 44.7 °F 30.07 in NNE 0.5 mph 7 mph 49.8% 0.00 in 432 W/m2
13:54 64.1 °F 44.3 °F 30.07 in NE 2.1 mph 7 mph 48.5% 0.00 in 432 W/m2
13:59 64 °F 44.5 °F 30.07 in NE 1.6 mph 7 mph 49% 0.00 in 295 W/m2
14:04 63.8 °F 44.3 °F 30.06 in ENE 1.3 mph 7 mph 49% 0.00 in 295 W/m2
14:09 63.6 °F 44.4 °F 30.06 in NE 2.3 mph 7 mph 49.5% 0.00 in 67 W/m2
14:14 63.6 °F 44.8 °F 30.07 in ENE 0.1 mph 7 mph 50.2% 0.00 in 156 W/m2
14:19 63.7 °F 45 °F 30.06 in North 0.7 mph 7 mph 50.5% 0.00 in 220 W/m2
14:24 63.7 °F 44.7 °F 30.06 in NE 0.9 mph 7 mph 50% 0.00 in 216 W/m2
14:29 63.5 °F 44.7 °F 30.06 in East 1.1 mph 7 mph 50.3% 0.00 in 274 W/m2
14:34 63.3 °F 44.6 °F 30.06 in ENE 1.5 mph 7 mph 50.5% 0.00 in 223 W/m2
14:39 63.1 °F 44.7 °F 30.06 in ENE 0.7 mph 6 mph 51% 0.00 in 32 W/m2
14:44 62.9 °F 44.5 °F 30.06 in ENE 1.1 mph 6 mph 51% 0.00 in 30 W/m2
14:49 62.8 °F 44.9 °F 30.06 in NE 0.1 mph 6 mph 51.9% 0.00 in 28 W/m2
14:54 62.8 °F 45.2 °F 30.06 in NE 0.4 mph 6 mph 52.6% 0.00 in 28 W/m2
14:59 62.7 °F 45 °F 30.06 in NNE 0.3 mph 6 mph 52.2% 0.00 in 26 W/m2
15:04 62.6 °F 44.9 °F 30.06 in Calm   6 mph 52.2% 0.00 in 26 W/m2
15:09 62.5 °F 45.2 °F 30.06 in NE 0.4 mph 3 mph 53% 0.00 in 26 W/m2
15:14 62.5 °F 44.8 °F 30.06 in NE 0.7 mph 4 mph 52.3% 0.00 in 25 W/m2
15:19 62.4 °F 45.1 °F 30.06 in Calm   4 mph 53% 0.00 in 23 W/m2
15:24 62.3 °F 45 °F 30.06 in NE 0.1 mph 4 mph 53% 0.00 in 23 W/m2
15:29 62.2 °F 44.9 °F 30.06 in NE 0.3 mph 4 mph 53% 0.00 in 21 W/m2
15:34 62.2 °F 44.8 °F 30.06 in NE 0.1 mph 4 mph 53% 0.00 in 21 W/m2
15:39 62.1 °F 44.9 °F 30.06 in Calm   1 mph 53.4% 0.00 in 19 W/m2
15:44 62 °F 45.1 °F 30.06 in Calm   1 mph 54% 0.00 in 19 W/m2
15:49 61.8 °F 45 °F 30.06 in NE 0.1 mph 2 mph 54% 0.00 in 18 W/m2
15:54 61.7 °F 44.9 °F 30.06 in Calm   2 mph 54% 0.00 in 18 W/m2
15:59 61.7 °F 45.1 °F 30.06 in Calm   2 mph 54.5% 0.00 in 16 W/m2
16:00 61.6 °F 44.8 °F 30.06 in Calm   2 mph 54% 0.00 in 14 W/m2
16:09 61.3 °F 45 °F 30.06 in Calm     55% 0.00 in 12 W/m2
16:14 61.2 °F 45.2 °F 30.06 in Calm     55.7% 0.00 in 12 W/m2
16:19 60.9 °F 45.1 °F 30.06 in Calm     55.8% 0.00 in 11 W/m2
16:24 60.7 °F 44.9 °F 30.06 in Calm     56% 0.00 in 9 W/m2
16:29 60.4 °F 45.1 °F 30.06 in Calm     57% 0.00 in 7 W/m2
16:34 60.1 °F 44.9 °F 30.06 in Calm     57% 0.00 in 5 W/m2
16:39 59.9 °F 44.9 °F 30.06 in Calm     57.7% 0.00 in 0 W/m2
16:44 59.6 °F 45.1 °F 30.06 in Calm     58.7% 0.00 in 0 W/m2
16:49 59.4 °F 45 °F 30.06 in Calm     58.9% 0.00 in 0 W/m2
16:54 59.1 °F 45.3 °F 30.07 in Calm     60.1% 0.00 in 0 W/m2
16:59 58.8 °F 45.5 °F 30.07 in Calm     61.1% 0.00 in 0 W/m2
17:04 58.5 °F 45.3 °F 30.07 in Calm     61.4% 0.00 in 0 W/m2
17:09 58.1 °F 45.2 °F 30.07 in Calm     62% 0.00 in 0 W/m2
17:14 57.7 °F 45 °F 30.07 in Calm     62.4% 0.00 in 0 W/m2
17:19 57.4 °F 44.9 °F 30.07 in Calm     63% 0.00 in 0 W/m2
17:24 57.1 °F 44.9 °F 30.08 in Calm     63.7% 0.00 in 0 W/m2
17:29 56.8 °F 45 °F 30.08 in Calm     64.5% 0.00 in 0 W/m2
17:34 56.4 °F 45.1 °F 30.08 in Calm     65.6% 0.00 in 0 W/m2
17:39 56.1 °F 45 °F 30.09 in Calm     66.4% 0.00 in 0 W/m2
17:44 55.6 °F 45 °F 30.09 in Calm     67.4% 0.00 in 0 W/m2
17:49 55.2 °F 44.8 °F 30.09 in Calm     68% 0.00 in 0 W/m2
17:54 54.7 °F 44.7 °F 30.09 in Calm     68.9% 0.00 in 0 W/m2
17:59 54.3 °F 44.4 °F 30.09 in Calm     69.2% 0.00 in 0 W/m2
18:04 53.9 °F 44.3 °F 30.09 in Calm     70% 0.00 in 0 W/m2
18:09 53.5 °F 44.3 °F 30.09 in Calm     71% 0.00 in 0 W/m2
18:14 53.2 °F 44.3 °F 30.09 in Calm     71.8% 0.00 in 0 W/m2
18:19 52.8 °F 44.1 °F 30.09 in Calm     72.2% 0.00 in 0 W/m2
18:24 52.4 °F 44.1 °F 30.09 in Calm     73% 0.00 in 0 W/m2
18:29 52.1 °F 44 °F 30.09 in Calm     73.9% 0.00 in 0 W/m2
18:34 51.8 °F 43.9 °F 30.09 in Calm     74.1% 0.00 in 0 W/m2
18:39 51.6 °F 43.9 °F 30.09 in Calm     75% 0.00 in 0 W/m2
18:44 51.4 °F 43.8 °F 30.09 in Calm     75.1% 0.00 in 0 W/m2
18:49 51.2 °F 43.9 °F 30.09 in Calm     76% 0.00 in 0 W/m2
18:54 51 °F 43.7 °F 30.09 in Calm     76% 0.00 in 0 W/m2
18:59 50.8 °F 43.6 °F 30.09 in Calm     76.2% 0.00 in 0 W/m2
19:04 50.6 °F 43.7 °F 30.09 in Calm     77% 0.00 in 0 W/m2
19:09 50.4 °F 43.5 °F 30.09 in Calm     77% 0.00 in 0 W/m2
19:14 50.2 °F 43.5 °F 30.09 in Calm     77.6% 0.00 in 0 W/m2
19:19 50.1 °F 43.5 °F 30.09 in Calm     78% 0.00 in 0 W/m2
19:24 49.8 °F 43.5 °F 30.10 in Calm     78.6% 0.00 in 0 W/m2
19:29 49.6 °F 43.4 °F 30.10 in Calm     79% 0.00 in 0 W/m2
19:34 49.4 °F 43.2 °F 30.10 in Calm     79% 0.00 in 0 W/m2
19:39 49.2 °F 43.3 °F 30.09 in Calm     80% 0.00 in 0 W/m2
19:44 49.1 °F 43.2 °F 30.09 in Calm     80% 0.00 in 0 W/m2
19:49 49 °F 43.1 °F 30.09 in Calm     80% 0.00 in 0 W/m2
19:54 48.9 °F 43 °F 30.09 in Calm     80.1% 0.00 in 0 W/m2
19:59 48.8 °F 43.1 °F 30.09 in Calm     80.8% 0.00 in 0 W/m2
20:09 48.5 °F 42.9 °F 30.09 in Calm     81% 0.00 in 0 W/m2
20:14 48.3 °F 42.8 °F 30.09 in Calm     81.2% 0.00 in 0 W/m2
20:19 48.2 °F 43 °F 30.09 in Calm     82% 0.00 in 0 W/m2
20:24 48 °F 42.8 °F 30.10 in Calm     82% 0.00 in 0 W/m2
20:29 47.8 °F 42.9 °F 30.09 in Calm     82.8% 0.00 in 0 W/m2
20:34 47.8 °F 43 °F 30.09 in Calm     83.3% 0.00 in 0 W/m2
20:39 47.7 °F 42.8 °F 30.09 in Calm     83% 0.00 in 0 W/m2
20:44 47.6 °F 42.7 °F 30.09 in Calm     83% 0.00 in 0 W/m2
20:49 47.5 °F 42.6 °F 30.09 in Calm     83% 0.00 in 0 W/m2
20:54 47.4 °F 42.7 °F 30.09 in Calm     83.7% 0.00 in 0 W/m2
20:59 47.3 °F 42.7 °F 30.09 in Calm     84% 0.00 in 0 W/m2
21:04 47.2 °F 42.6 °F 30.10 in Calm     84% 0.00 in 0 W/m2
21:09 47.1 °F 42.6 °F 30.10 in Calm     84.3% 0.00 in 0 W/m2
21:14 46.9 °F 42.7 °F 30.09 in Calm     85% 0.00 in 0 W/m2
21:19 46.9 °F 42.6 °F 30.09 in Calm     85% 0.00 in 0 W/m2
21:24 47 °F 42.8 °F 30.09 in Calm     85.1% 0.00 in 0 W/m2
21:29 47 °F 43 °F 30.09 in Calm     85.7% 0.00 in 0 W/m2
21:34 47.1 °F 42.9 °F 30.09 in Calm     85.2% 0.00 in 0 W/m2
21:39 47.1 °F 42.8 °F 30.09 in Calm     85% 0.00 in 0 W/m2
21:44 46.9 °F 42.7 °F 30.09 in Calm     85% 0.00 in 0 W/m2
21:49 46.8 °F 42.6 °F 30.09 in Calm     85% 0.00 in 0 W/m2
21:54 46.7 °F 42.4 °F 30.09 in Calm     85% 0.00 in 0 W/m2
21:59 46.5 °F 42.3 °F 30.09 in Calm     85% 0.00 in 0 W/m2
22:04 46.4 °F 42.4 °F 30.09 in Calm     85.8% 0.00 in 0 W/m2
22:09 46.6 °F 42.7 °F 30.10 in Calm     86% 0.00 in 0 W/m2
22:14 46.8 °F 42.8 °F 30.10 in Calm     86% 0.00 in 0 W/m2
22:19 46.6 °F 42.4 °F 30.10 in Calm     85.1% 0.00 in 0 W/m2
22:24 46.4 °F 42.1 °F 30.10 in Calm     85% 0.00 in 0 W/m2
22:29 46.2 °F 41.9 °F 30.10 in Calm     85% 0.00 in 0 W/m2
22:34 46.1 °F 41.9 °F 30.10 in Calm     85.2% 0.00 in 0 W/m2
22:39 45.9 °F 42 °F 30.09 in Calm     86% 0.00 in 0 W/m2
22:44 45.7 °F 41.8 °F 30.09 in Calm     86% 0.00 in 0 W/m2
22:49 45.5 °F 41.6 °F 30.09 in Calm     86% 0.00 in 0 W/m2
22:54 45.3 °F 41.4 °F 30.09 in Calm     86% 0.00 in 0 W/m2
22:59 45.1 °F 41.2 °F 30.09 in Calm     86% 0.00 in 0 W/m2
23:00 45 °F 41.1 °F 30.09 in Calm     86% 0.00 in 0 W/m2
23:09 44.6 °F 40.9 °F 30.09 in Calm     86.6% 0.00 in 0 W/m2
23:14 44.4 °F 40.8 °F 30.09 in Calm     87% 0.00 in 0 W/m2
23:19 44.3 °F 40.7 °F 30.09 in Calm     87.1% 0.00 in 0 W/m2
23:24 44.2 °F 40.9 °F 30.09 in Calm     88% 0.00 in 0 W/m2
23:29 44.1 °F 40.8 °F 30.09 in Calm     88% 0.00 in 0 W/m2
23:34 44.1 °F 40.9 °F 30.09 in Calm     88.5% 0.00 in 0 W/m2
23:39 44 °F 41 °F 30.09 in Calm     89% 0.00 in 0 W/m2
23:44 44 °F 41 °F 30.08 in Calm     89% 0.00 in 0 W/m2
23:49 44 °F 41 °F 30.08 in Calm     89% 0.00 in 0 W/m2
23:54 43.9 °F 40.9 °F 30.08 in Calm     89% 0.00 in 0 W/m2
23:59 43.7 °F 40.7 °F 30.08 in Calm     89% 0.00 in 0 W/m2
Hartford County Weather
Compliments of Weather Underground - 4 mb